sensor_id;sensor_type;location;lat;lon;timestamp;pressure;altitude;pressure_sealevel;temperature;humidity
66196;BME280;53000;45.182;5.736;2023-07-13T00:00:27;99178.41;;;26.72;55.72
66196;BME280;53000;45.182;5.736;2023-07-13T00:02:53;99186.19;;;26.70;55.11
66196;BME280;53000;45.182;5.736;2023-07-13T00:05:23;99174.22;;;26.65;55.58
66196;BME280;53000;45.182;5.736;2023-07-13T00:07:49;99171.44;;;26.65;55.22
66196;BME280;53000;45.182;5.736;2023-07-13T00:10:15;99171.75;;;26.63;54.91
66196;BME280;53000;45.182;5.736;2023-07-13T00:12:41;99170.06;;;26.62;55.00
66196;BME280;53000;45.182;5.736;2023-07-13T00:15:14;99172.28;;;26.60;55.16
66196;BME280;53000;45.182;5.736;2023-07-13T00:17:41;99177.56;;;26.62;55.95
66196;BME280;53000;45.182;5.736;2023-07-13T00:20:10;99177.84;;;26.65;56.83
66196;BME280;53000;45.182;5.736;2023-07-13T00:22:36;99187.56;;;26.68;57.95
66196;BME280;53000;45.182;5.736;2023-07-13T00:25:01;99187.56;;;26.63;58.24
66196;BME280;53000;45.182;5.736;2023-07-13T00:27:26;99182.56;;;26.65;59.55
66196;BME280;53000;45.182;5.736;2023-07-13T00:29:52;99178.41;;;26.67;58.88
66196;BME280;53000;45.182;5.736;2023-07-13T00:32:18;99180.63;;;26.70;57.65
66196;BME280;53000;45.182;5.736;2023-07-13T00:34:43;99183.94;;;26.72;58.37
66196;BME280;53000;45.182;5.736;2023-07-13T00:37:09;99192.00;;;26.74;58.81
66196;BME280;53000;45.182;5.736;2023-07-13T00:39:35;99190.34;;;26.73;59.28
66196;BME280;53000;45.182;5.736;2023-07-13T00:42:01;99192.00;;;26.69;59.18
66196;BME280;53000;45.182;5.736;2023-07-13T00:44:27;99202.28;;;26.68;60.79
66196;BME280;53000;45.182;5.736;2023-07-13T00:46:52;99213.38;;;26.68;60.03
66196;BME280;53000;45.182;5.736;2023-07-13T00:49:20;99213.94;;;26.70;60.22
66196;BME280;53000;45.182;5.736;2023-07-13T00:54:18;99226.97;;;26.65;60.48
66196;BME280;53000;45.182;5.736;2023-07-13T00:56:45;99230.63;;;26.65;60.45
66196;BME280;53000;45.182;5.736;2023-07-13T00:59:13;99222.81;;;26.62;60.13
66196;BME280;53000;45.182;5.736;2023-07-13T01:01:40;99225.31;;;26.64;60.50
66196;BME280;53000;45.182;5.736;2023-07-13T01:04:05;99237.00;;;26.66;60.71
66196;BME280;53000;45.182;5.736;2023-07-13T01:06:34;99235.31;;;26.65;60.54
66196;BME280;53000;45.182;5.736;2023-07-13T01:09:01;99218.09;;;26.63;60.13
66196;BME280;53000;45.182;5.736;2023-07-13T01:11:27;99230.31;;;26.62;60.27
66196;BME280;53000;45.182;5.736;2023-07-13T01:13:52;99228.94;;;26.59;60.16
66196;BME280;53000;45.182;5.736;2023-07-13T01:16:25;99227.53;;;26.62;59.96
66196;BME280;53000;45.182;5.736;2023-07-13T01:18:51;99225.03;;;26.60;59.40
66196;BME280;53000;45.182;5.736;2023-07-13T01:21:17;99222.81;;;26.57;59.87
66196;BME280;53000;45.182;5.736;2023-07-13T01:23:44;99216.97;;;26.48;59.95
66196;BME280;53000;45.182;5.736;2023-07-13T01:26:10;99206.38;;;26.45;61.03
66196;BME280;53000;45.182;5.736;2023-07-13T01:28:36;99213.88;;;26.35;61.51
66196;BME280;53000;45.182;5.736;2023-07-13T01:31:03;99209.16;;;26.25;61.33
66196;BME280;53000;45.182;5.736;2023-07-13T01:33:29;99215.22;;;26.22;60.30
66196;BME280;53000;45.182;5.736;2023-07-13T01:35:55;99208.28;;;26.19;57.12
66196;BME280;53000;45.182;5.736;2023-07-13T01:38:23;99210.81;;;26.21;56.75
66196;BME280;53000;45.182;5.736;2023-07-13T01:40:50;99209.69;;;26.22;55.68
66196;BME280;53000;45.182;5.736;2023-07-13T01:43:16;99218.31;;;26.25;54.72
66196;BME280;53000;45.182;5.736;2023-07-13T01:45:41;99219.41;;;26.29;54.38
66196;BME280;53000;45.182;5.736;2023-07-13T01:48:09;99209.72;;;26.32;51.95
66196;BME280;53000;45.182;5.736;2023-07-13T01:50:34;99219.72;;;26.33;52.90
66196;BME280;53000;45.182;5.736;2023-07-13T01:53:00;99213.03;;;26.29;51.06
66196;BME280;53000;45.182;5.736;2023-07-13T01:55:27;99211.09;;;26.29;53.29
66196;BME280;53000;45.182;5.736;2023-07-13T01:57:52;99215.81;;;26.29;53.00
66196;BME280;53000;45.182;5.736;2023-07-13T02:00:18;99207.50;;;26.29;51.91
66196;BME280;53000;45.182;5.736;2023-07-13T02:02:43;99215.81;;;26.29;52.37
66196;BME280;53000;45.182;5.736;2023-07-13T02:05:09;99212.47;;;26.32;52.48
66196;BME280;53000;45.182;5.736;2023-07-13T02:07:35;99210.28;;;26.34;51.96
66196;BME280;53000;45.182;5.736;2023-07-13T02:10:00;99216.38;;;26.36;52.78
66196;BME280;53000;45.182;5.736;2023-07-13T02:12:26;99222.19;;;26.35;51.93
66196;BME280;53000;45.182;5.736;2023-07-13T02:14:51;99215.81;;;26.34;51.54
66196;BME280;53000;45.182;5.736;2023-07-13T02:17:16;99212.22;;;26.34;51.15
66196;BME280;53000;45.182;5.736;2023-07-13T02:19:42;99216.63;;;26.35;52.07
66196;BME280;53000;45.182;5.736;2023-07-13T02:22:07;99216.63;;;26.35;51.28
66196;BME280;53000;45.182;5.736;2023-07-13T02:24:32;99208.88;;;26.31;51.13
66196;BME280;53000;45.182;5.736;2023-07-13T02:26:58;99217.75;;;26.28;50.83
66196;BME280;53000;45.182;5.736;2023-07-13T02:29:23;99213.31;;;26.27;51.47
66196;BME280;53000;45.182;5.736;2023-07-13T02:31:49;99221.91;;;26.26;51.07
66196;BME280;53000;45.182;5.736;2023-07-13T02:34:14;99223.28;;;26.23;51.09
66196;BME280;53000;45.182;5.736;2023-07-13T02:36:39;99211.91;;;26.20;51.56
66196;BME280;53000;45.182;5.736;2023-07-13T02:39:05;99215.78;;;26.19;51.06
66196;BME280;53000;45.182;5.736;2023-07-13T02:41:31;99223.56;;;26.11;50.93
66196;BME280;53000;45.182;5.736;2023-07-13T02:43:58;99216.06;;;26.12;51.02
66196;BME280;53000;45.182;5.736;2023-07-13T02:46:29;99220.78;;;26.11;50.95
66196;BME280;53000;45.182;5.736;2023-07-13T02:48:54;99220.75;;;26.06;51.13
66196;BME280;53000;45.182;5.736;2023-07-13T02:51:19;99218.78;;;26.02;51.25
66196;BME280;53000;45.182;5.736;2023-07-13T02:53:45;99217.97;;;26.01;51.23
66196;BME280;53000;45.182;5.736;2023-07-13T02:56:10;99215.72;;;25.98;51.10
66196;BME280;53000;45.182;5.736;2023-07-13T02:58:35;99231.25;;;25.94;51.09
66196;BME280;53000;45.182;5.736;2023-07-13T03:01:07;99225.13;;;25.92;51.43
66196;BME280;53000;45.182;5.736;2023-07-13T03:03:32;99229.28;;;25.89;51.62
66196;BME280;53000;45.182;5.736;2023-07-13T03:06:00;99219.88;;;25.90;51.00
66196;BME280;53000;45.182;5.736;2023-07-13T03:08:27;99226.22;;;25.86;51.41
66196;BME280;53000;45.182;5.736;2023-07-13T03:11:00;99233.97;;;25.84;51.33
66196;BME280;53000;45.182;5.736;2023-07-13T03:13:26;99232.84;;;25.80;51.44
66196;BME280;53000;45.182;5.736;2023-07-13T03:15:51;99229.75;;;25.76;51.20
66196;BME280;53000;45.182;5.736;2023-07-13T03:18:16;99238.34;;;25.75;51.33
66196;BME280;53000;45.182;5.736;2023-07-13T03:20:42;99238.06;;;25.71;51.20
66196;BME280;53000;45.182;5.736;2023-07-13T03:23:07;99240.78;;;25.66;51.33
66196;BME280;53000;45.182;5.736;2023-07-13T03:25:32;99242.19;;;25.63;51.41
66196;BME280;53000;45.182;5.736;2023-07-13T03:27:58;99239.09;;;25.60;51.53
66196;BME280;53000;45.182;5.736;2023-07-13T03:30:23;99243.00;;;25.59;51.59
66196;BME280;53000;45.182;5.736;2023-07-13T03:32:48;99242.69;;;25.55;51.66
66196;BME280;53000;45.182;5.736;2023-07-13T03:35:14;99244.63;;;25.55;51.41
66196;BME280;53000;45.182;5.736;2023-07-13T03:37:39;99252.94;;;25.55;51.85
66196;BME280;53000;45.182;5.736;2023-07-13T03:40:08;99260.13;;;25.56;51.74
66196;BME280;53000;45.182;5.736;2023-07-13T03:42:34;99255.72;;;25.55;51.52
66196;BME280;53000;45.182;5.736;2023-07-13T03:45:00;99262.34;;;25.54;51.67
66196;BME280;53000;45.182;5.736;2023-07-13T03:47:25;99256.78;;;25.54;51.94
66196;BME280;53000;45.182;5.736;2023-07-13T03:49:50;99262.91;;;25.56;51.39
66196;BME280;53000;45.182;5.736;2023-07-13T03:52:16;99262.91;;;25.56;51.20
66196;BME280;53000;45.182;5.736;2023-07-13T03:54:41;99261.00;;;25.56;51.24
66196;BME280;53000;45.182;5.736;2023-07-13T03:57:09;99262.66;;;25.57;51.10
66196;BME280;53000;45.182;5.736;2023-07-13T03:59:34;99264.34;;;25.58;50.80
66196;BME280;53000;45.182;5.736;2023-07-13T04:02:00;99258.22;;;25.56;50.42
66196;BME280;53000;45.182;5.736;2023-07-13T04:04:26;99261.25;;;25.55;50.55
66196;BME280;53000;45.182;5.736;2023-07-13T04:06:51;99265.41;;;25.52;50.29
66196;BME280;53000;45.182;5.736;2023-07-13T04:09:18;99269.56;;;25.49;50.46
66196;BME280;53000;45.182;5.736;2023-07-13T04:11:44;99271.22;;;25.50;50.24
66196;BME280;53000;45.182;5.736;2023-07-13T04:14:09;99269.56;;;25.49;50.36
66196;BME280;53000;45.182;5.736;2023-07-13T04:16:35;99280.91;;;25.48;49.97
66196;BME280;53000;45.182;5.736;2023-07-13T04:19:00;99278.13;;;25.48;50.01
66196;BME280;53000;45.182;5.736;2023-07-13T04:21:27;99290.28;;;25.47;49.60
66196;BME280;53000;45.182;5.736;2023-07-13T04:23:53;99291.41;;;25.46;49.33
66196;BME280;53000;45.182;5.736;2023-07-13T04:26:18;99283.34;;;25.44;48.57
66196;BME280;53000;45.182;5.736;2023-07-13T04:28:46;99288.31;;;25.42;48.46
66196;BME280;53000;45.182;5.736;2023-07-13T04:31:12;99301.63;;;25.40;47.85
66196;BME280;53000;45.182;5.736;2023-07-13T04:33:37;99294.41;;;25.39;47.88
66196;BME280;53000;45.182;5.736;2023-07-13T04:36:04;99301.91;;;25.39;48.31
66196;BME280;53000;45.182;5.736;2023-07-13T04:38:30;99305.19;;;25.36;46.95
66196;BME280;53000;45.182;5.736;2023-07-13T04:40:59;99319.03;;;25.36;46.25
66196;BME280;53000;45.182;5.736;2023-07-13T04:43:25;99321.00;;;25.35;47.72
66196;BME280;53000;45.182;5.736;2023-07-13T04:45:52;99315.13;;;25.32;47.34
66196;BME280;53000;45.182;5.736;2023-07-13T04:48:20;99321.16;;;25.23;46.37
66196;BME280;53000;45.182;5.736;2023-07-13T04:50:47;99318.31;;;25.18;46.94
66196;BME280;53000;45.182;5.736;2023-07-13T04:53:12;99340.72;;;25.12;46.89
66196;BME280;53000;45.182;5.736;2023-07-13T04:55:38;99322.63;;;25.04;46.62
66196;BME280;53000;45.182;5.736;2023-07-13T04:58:04;99340.09;;;25.04;47.17
66196;BME280;53000;45.182;5.736;2023-07-13T05:00:30;99325.13;;;25.00;47.30
66196;BME280;53000;45.182;5.736;2023-07-13T05:02:57;99333.66;;;24.99;47.67
66196;BME280;53000;45.182;5.736;2023-07-13T05:05:24;99333.66;;;24.99;48.26
66196;BME280;53000;45.182;5.736;2023-07-13T05:07:50;99347.84;;;25.02;47.55
66196;BME280;53000;45.182;5.736;2023-07-13T05:10:16;99334.81;;;25.03;47.24
66196;BME280;53000;45.182;5.736;2023-07-13T05:12:41;99350.28;;;24.99;47.33
66196;BME280;53000;45.182;5.736;2023-07-13T05:15:07;99346.94;;;24.97;47.09
66196;BME280;53000;45.182;5.736;2023-07-13T05:17:32;99364.38;;;24.97;48.10
66196;BME280;53000;45.182;5.736;2023-07-13T05:19:58;99355.56;;;25.00;47.77
66196;BME280;53000;45.182;5.736;2023-07-13T05:22:23;99364.72;;;25.01;48.36
66196;BME280;53000;45.182;5.736;2023-07-13T05:24:48;99366.94;;;25.04;47.62
66196;BME280;53000;45.182;5.736;2023-07-13T05:27:14;99370.56;;;25.04;48.28
66196;BME280;53000;45.182;5.736;2023-07-13T05:29:39;99373.84;;;25.01;47.76
66196;BME280;53000;45.182;5.736;2023-07-13T05:32:05;99373.81;;;24.96;47.34
66196;BME280;53000;45.182;5.736;2023-07-13T05:34:30;99372.59;;;24.87;46.99
66196;BME280;53000;45.182;5.736;2023-07-13T05:36:56;99385.41;;;24.66;47.48
66196;BME280;53000;45.182;5.736;2023-07-13T05:39:21;99381.84;;;24.48;48.17
66196;BME280;53000;45.182;5.736;2023-07-13T05:41:47;99381.38;;;24.35;48.14
66196;BME280;53000;45.182;5.736;2023-07-13T05:44:12;99384.25;;;24.23;48.76
66196;BME280;53000;45.182;5.736;2023-07-13T05:46:37;99386.38;;;24.16;48.89
66196;BME280;53000;45.182;5.736;2023-07-13T05:49:03;99383.81;;;24.09;48.95
66196;BME280;53000;45.182;5.736;2023-07-13T05:51:29;99385.94;;;24.02;49.25
66196;BME280;53000;45.182;5.736;2023-07-13T05:53:54;99383.84;;;23.92;49.58
66196;BME280;53000;45.182;5.736;2023-07-13T05:56:19;99392.91;;;23.87;50.03
66196;BME280;53000;45.182;5.736;2023-07-13T05:58:45;99396.75;;;23.86;50.19
66196;BME280;53000;45.182;5.736;2023-07-13T06:01:13;99392.00;;;23.82;50.25
66196;BME280;53000;45.182;5.736;2023-07-13T06:03:39;99396.00;;;23.74;50.29
66196;BME280;53000;45.182;5.736;2023-07-13T06:06:06;99396.50;;;23.71;50.92
66196;BME280;53000;45.182;5.736;2023-07-13T06:08:32;99406.97;;;23.69;50.94
66196;BME280;53000;45.182;5.736;2023-07-13T06:11:06;99408.66;;;23.70;50.92
66196;BME280;53000;45.182;5.736;2023-07-13T06:13:32;99418.88;;;23.70;50.37
66196;BME280;53000;45.182;5.736;2023-07-13T06:15:58;99413.59;;;23.68;50.52
66196;BME280;53000;45.182;5.736;2023-07-13T06:18:24;99427.41;;;23.68;51.16
66196;BME280;53000;45.182;5.736;2023-07-13T06:20:49;99431.75;;;23.64;50.75
66196;BME280;53000;45.182;5.736;2023-07-13T06:23:14;99431.75;;;23.64;50.50
66196;BME280;53000;45.182;5.736;2023-07-13T06:25:40;99429.06;;;23.69;51.15
66196;BME280;53000;45.182;5.736;2023-07-13T06:28:05;99431.94;;;23.74;50.96
66196;BME280;53000;45.182;5.736;2023-07-13T06:30:31;99421.50;;;23.76;51.10
66196;BME280;53000;45.182;5.736;2023-07-13T06:32:57;99429.84;;;23.81;50.98
66196;BME280;53000;45.182;5.736;2023-07-13T06:35:22;99427.16;;;23.86;50.90
66196;BME280;53000;45.182;5.736;2023-07-13T06:37:47;99437.47;;;23.91;50.82
66196;BME280;53000;45.182;5.736;2023-07-13T06:40:13;99440.06;;;23.98;50.67
66196;BME280;53000;45.182;5.736;2023-07-13T06:42:38;99437.88;;;24.00;50.76
66196;BME280;53000;45.182;5.736;2023-07-13T06:45:04;99436.78;;;24.01;51.28
66196;BME280;53000;45.182;5.736;2023-07-13T06:47:29;99449.25;;;24.03;50.60
66196;BME280;53000;45.182;5.736;2023-07-13T06:49:55;99447.16;;;24.11;50.40
66196;BME280;53000;45.182;5.736;2023-07-13T06:52:20;99447.22;;;24.16;50.59
66196;BME280;53000;45.182;5.736;2023-07-13T06:54:46;99457.34;;;24.27;50.23
66196;BME280;53000;45.182;5.736;2023-07-13T06:57:11;99451.13;;;24.37;49.92
66196;BME280;53000;45.182;5.736;2023-07-13T06:59:36;99458.81;;;24.52;49.64
66196;BME280;53000;45.182;5.736;2023-07-13T07:02:03;99456.50;;;24.65;49.29
66196;BME280;53000;45.182;5.736;2023-07-13T07:04:28;99452.84;;;24.82;48.33
66196;BME280;53000;45.182;5.736;2023-07-13T07:06:54;99454.38;;;24.95;48.39
66196;BME280;53000;45.182;5.736;2023-07-13T07:09:19;99451.72;;;25.05;48.59
66196;BME280;53000;45.182;5.736;2023-07-13T07:11:44;99450.19;;;25.19;48.13
66196;BME280;53000;45.182;5.736;2023-07-13T07:14:10;99452.25;;;25.29;48.13
66196;BME280;53000;45.182;5.736;2023-07-13T07:16:35;99456.78;;;25.40;47.72
66196;BME280;53000;45.182;5.736;2023-07-13T07:19:01;99450.53;;;25.50;47.68
66196;BME280;53000;45.182;5.736;2023-07-13T07:21:26;99453.38;;;25.60;47.31
66196;BME280;53000;45.182;5.736;2023-07-13T07:23:52;99452.03;;;25.68;47.37
66196;BME280;53000;45.182;5.736;2023-07-13T07:26:18;99459.34;;;25.79;46.83
66196;BME280;53000;45.182;5.736;2023-07-13T07:28:43;99452.84;;;25.96;47.26
66196;BME280;53000;45.182;5.736;2023-07-13T07:31:09;99452.13;;;26.10;46.17
66196;BME280;53000;45.182;5.736;2023-07-13T07:33:34;99457.72;;;26.21;46.07
66196;BME280;53000;45.182;5.736;2023-07-13T07:36:00;99458.63;;;26.31;46.24
66196;BME280;53000;45.182;5.736;2023-07-13T07:38:25;99465.03;;;26.37;46.41
66196;BME280;53000;45.182;5.736;2023-07-13T07:40:51;99467.28;;;26.45;45.25
66196;BME280;53000;45.182;5.736;2023-07-13T07:43:16;99465.84;;;26.90;45.22
66196;BME280;53000;45.182;5.736;2023-07-13T07:45:44;99472.44;;;28.04;43.87
66196;BME280;53000;45.182;5.736;2023-07-13T07:48:09;99471.53;;;28.39;42.13
66196;BME280;53000;45.182;5.736;2023-07-13T07:50:35;99475.72;;;28.37;42.27
66196;BME280;53000;45.182;5.736;2023-07-13T07:53:00;99480.47;;;28.21;42.21
66196;BME280;53000;45.182;5.736;2023-07-13T07:55:27;99475.50;;;28.07;42.65
66196;BME280;53000;45.182;5.736;2023-07-13T07:57:53;99480.25;;;27.97;41.69
66196;BME280;53000;45.182;5.736;2023-07-13T08:00:19;99477.69;;;27.85;42.52
66196;BME280;53000;45.182;5.736;2023-07-13T08:02:45;99471.84;;;27.76;42.70
66196;BME280;53000;45.182;5.736;2023-07-13T08:05:10;99479.94;;;27.78;42.60
66196;BME280;53000;45.182;5.736;2023-07-13T08:07:37;99470.47;;;27.84;43.33
66196;BME280;53000;45.182;5.736;2023-07-13T08:10:04;99469.22;;;28.72;43.14
66196;BME280;53000;45.182;5.736;2023-07-13T08:12:34;99473.97;;;29.71;41.27
66196;BME280;53000;45.182;5.736;2023-07-13T08:14:59;99465.66;;;29.95;40.92
66196;BME280;53000;45.182;5.736;2023-07-13T08:17:26;99470.03;;;30.35;40.35
66196;BME280;53000;45.182;5.736;2023-07-13T08:19:51;99462.19;;;31.48;37.70
66196;BME280;53000;45.182;5.736;2023-07-13T08:22:17;99468.81;;;32.64;37.54
66196;BME280;53000;45.182;5.736;2023-07-13T08:24:42;99463.63;;;33.72;34.15
66196;BME280;53000;45.182;5.736;2023-07-13T08:27:09;99463.78;;;34.52;31.98
66196;BME280;53000;45.182;5.736;2023-07-13T08:29:36;99468.31;;;35.19;31.76
66196;BME280;53000;45.182;5.736;2023-07-13T08:32:02;99464.66;;;35.62;32.12
66196;BME280;53000;45.182;5.736;2023-07-13T08:34:27;99463.31;;;36.03;31.14
66196;BME280;53000;45.182;5.736;2023-07-13T08:36:53;99456.69;;;36.55;30.52
66196;BME280;53000;45.182;5.736;2023-07-13T08:39:18;99455.41;;;36.82;29.78
66196;BME280;53000;45.182;5.736;2023-07-13T08:41:47;99457.47;;;37.02;30.45
66196;BME280;53000;45.182;5.736;2023-07-13T08:47:02;99457.03;;;36.53;28.66
66196;BME280;53000;45.182;5.736;2023-07-13T08:49:28;99458.81;;;36.11;29.77
66196;BME280;53000;45.182;5.736;2023-07-13T08:51:58;99460.06;;;35.75;31.00
66196;BME280;53000;45.182;5.736;2023-07-13T08:54:32;99459.88;;;35.28;29.26
66196;BME280;53000;45.182;5.736;2023-07-13T08:57:03;99461.09;;;34.78;31.44
66196;BME280;53000;45.182;5.736;2023-07-13T08:59:35;99459.53;;;34.32;31.88
66196;BME280;53000;45.182;5.736;2023-07-13T09:05:38;99465.63;;;33.94;31.94
66196;BME280;53000;45.182;5.736;2023-07-13T09:10:52;99452.28;;;33.77;32.85
66196;BME280;53000;45.182;5.736;2023-07-13T09:13:32;99450.09;;;33.51;33.52
66196;BME280;53000;45.182;5.736;2023-07-13T09:16:00;99453.50;;;33.48;32.81
66196;BME280;53000;45.182;5.736;2023-07-13T09:18:47;99445.38;;;33.60;33.05
66196;BME280;53000;45.182;5.736;2023-07-13T09:21:37;99465.47;;;33.76;33.52
66196;BME280;53000;45.182;5.736;2023-07-13T09:27:19;99470.56;;;33.97;30.79
66196;BME280;53000;45.182;5.736;2023-07-13T09:29:51;99458.25;;;34.07;30.51
66196;BME280;53000;45.182;5.736;2023-07-13T09:32:21;99465.97;;;34.24;33.06
66196;BME280;53000;45.182;5.736;2023-07-13T09:34:53;99453.63;;;34.33;31.77
66196;BME280;53000;45.182;5.736;2023-07-13T09:37:21;99475.50;;;34.45;32.52
66196;BME280;53000;45.182;5.736;2023-07-13T09:39:49;99468.06;;;34.49;31.56
66196;BME280;53000;45.182;5.736;2023-07-13T09:42:18;99477.19;;;34.55;31.66
66196;BME280;53000;45.182;5.736;2023-07-13T09:44:57;99473.38;;;34.59;31.63
66196;BME280;53000;45.182;5.736;2023-07-13T09:47:27;99468.19;;;34.75;31.22
66196;BME280;53000;45.182;5.736;2023-07-13T09:50:00;99478.31;;;34.85;31.38
66196;BME280;53000;45.182;5.736;2023-07-13T09:52:27;99479.78;;;34.82;31.53
66196;BME280;53000;45.182;5.736;2023-07-13T09:55:04;99487.22;;;34.78;30.56
66196;BME280;53000;45.182;5.736;2023-07-13T09:57:29;99483.16;;;34.62;30.41
66196;BME280;53000;45.182;5.736;2023-07-13T09:59:55;99473.81;;;34.44;30.41
66196;BME280;53000;45.182;5.736;2023-07-13T10:02:31;99472.94;;;34.26;31.35
66196;BME280;53000;45.182;5.736;2023-07-13T10:05:03;99476.44;;;34.09;31.38
66196;BME280;53000;45.182;5.736;2023-07-13T10:07:30;99475.53;;;34.00;31.29
66196;BME280;53000;45.182;5.736;2023-07-13T10:09:59;99475.38;;;33.96;30.81
66196;BME280;53000;45.182;5.736;2023-07-13T10:12:30;99470.97;;;33.81;31.47
66196;BME280;53000;45.182;5.736;2023-07-13T10:14:58;99454.84;;;33.65;30.59
66196;BME280;53000;45.182;5.736;2023-07-13T10:17:29;99468.41;;;33.49;30.27
66196;BME280;53000;45.182;5.736;2023-07-13T10:19:59;99473.53;;;33.33;30.63
66196;BME280;53000;45.182;5.736;2023-07-13T10:22:36;99470.56;;;33.15;31.64
66196;BME280;53000;45.182;5.736;2023-07-13T10:25:13;99469.97;;;32.91;31.21
66196;BME280;53000;45.182;5.736;2023-07-13T10:27:39;99474.84;;;32.71;31.04
66196;BME280;53000;45.182;5.736;2023-07-13T10:30:19;99481.97;;;32.50;30.96
66196;BME280;53000;45.182;5.736;2023-07-13T10:32:46;99480.28;;;32.35;31.85
66196;BME280;53000;45.182;5.736;2023-07-13T10:35:14;99469.31;;;32.25;31.46
66196;BME280;53000;45.182;5.736;2023-07-13T10:37:49;99476.25;;;32.27;31.06
66196;BME280;53000;45.182;5.736;2023-07-13T10:40:21;99467.63;;;32.24;31.75
66196;BME280;53000;45.182;5.736;2023-07-13T10:42:50;99468.25;;;32.21;30.88
66196;BME280;53000;45.182;5.736;2023-07-13T10:45:20;99467.22;;;32.16;31.50
66196;BME280;53000;45.182;5.736;2023-07-13T10:47:47;99467.63;;;32.10;31.04
66196;BME280;53000;45.182;5.736;2023-07-13T10:50:22;99471.78;;;31.93;31.24
66196;BME280;53000;45.182;5.736;2023-07-13T10:52:55;99468.03;;;31.84;32.30
66196;BME280;53000;45.182;5.736;2023-07-13T10:55:38;99465.66;;;31.91;31.57
66196;BME280;53000;45.182;5.736;2023-07-13T10:58:20;99459.00;;;31.87;31.25
66196;BME280;53000;45.182;5.736;2023-07-13T11:00:57;99453.22;;;31.84;31.13
66196;BME280;53000;45.182;5.736;2023-07-13T11:03:27;99438.28;;;31.88;31.62
66196;BME280;53000;45.182;5.736;2023-07-13T11:06:06;99432.00;;;31.96;31.69
66196;BME280;53000;45.182;5.736;2023-07-13T11:08:36;99434.41;;;32.03;32.13
66196;BME280;53000;45.182;5.736;2023-07-13T11:11:03;99432.78;;;32.16;32.52
66196;BME280;53000;45.182;5.736;2023-07-13T11:13:55;99431.94;;;32.29;32.02
66196;BME280;53000;45.182;5.736;2023-07-13T11:21:23;99436.09;;;32.46;30.75
66196;BME280;53000;45.182;5.736;2023-07-13T11:23:53;99439.22;;;32.44;30.83
66196;BME280;53000;45.182;5.736;2023-07-13T11:29:33;99434.97;;;32.47;31.35
66196;BME280;53000;45.182;5.736;2023-07-13T11:32:22;99430.91;;;32.39;30.46
66196;BME280;53000;45.182;5.736;2023-07-13T11:34:47;99430.28;;;32.28;29.91
66196;BME280;53000;45.182;5.736;2023-07-13T11:37:16;99419.69;;;32.25;31.06
66196;BME280;53000;45.182;5.736;2023-07-13T11:39:44;99410.66;;;32.28;31.40
66196;BME280;53000;45.182;5.736;2023-07-13T11:42:16;99409.53;;;32.29;30.61
66196;BME280;53000;45.182;5.736;2023-07-13T11:44:52;99404.34;;;32.36;30.73
66196;BME280;53000;45.182;5.736;2023-07-13T11:47:21;99402.81;;;32.44;30.32
66196;BME280;53000;45.182;5.736;2023-07-13T11:49:53;99401.75;;;32.40;30.87
66196;BME280;53000;45.182;5.736;2023-07-13T11:52:32;99391.06;;;32.42;30.40
66196;BME280;53000;45.182;5.736;2023-07-13T11:55:00;99392.94;;;32.47;30.23
66196;BME280;53000;45.182;5.736;2023-07-13T11:57:32;99389.19;;;32.51;30.14
66196;BME280;53000;45.182;5.736;2023-07-13T12:00:12;99393.06;;;32.55;30.84
66196;BME280;53000;45.182;5.736;2023-07-13T12:02:43;99403.16;;;32.56;30.51
66196;BME280;53000;45.182;5.736;2023-07-13T12:05:16;99402.16;;;32.47;30.11
66196;BME280;53000;45.182;5.736;2023-07-13T12:07:46;99388.97;;;32.48;29.18
66196;BME280;53000;45.182;5.736;2023-07-13T12:12:37;99393.56;;;32.57;29.76
66196;BME280;53000;45.182;5.736;2023-07-13T12:15:10;99385.06;;;32.63;29.65
66196;BME280;53000;45.182;5.736;2023-07-13T12:17:36;99370.13;;;32.67;29.39
66196;BME280;53000;45.182;5.736;2023-07-13T12:20:11;99358.41;;;32.65;29.19
66196;BME280;53000;45.182;5.736;2023-07-13T12:22:45;99359.91;;;32.71;29.87
66196;BME280;53000;45.182;5.736;2023-07-13T12:25:12;99362.69;;;32.85;28.86
66196;BME280;53000;45.182;5.736;2023-07-13T12:27:37;99362.25;;;32.92;28.56
66196;BME280;53000;45.182;5.736;2023-07-13T12:30:15;99355.84;;;32.91;29.06
66196;BME280;53000;45.182;5.736;2023-07-13T12:32:59;99364.53;;;33.04;28.49
66196;BME280;53000;45.182;5.736;2023-07-13T12:35:25;99357.66;;;33.10;27.94
66196;BME280;53000;45.182;5.736;2023-07-13T12:37:57;99374.38;;;33.01;28.22
66196;BME280;53000;45.182;5.736;2023-07-13T12:40:36;99372.97;;;32.90;28.26
66196;BME280;53000;45.182;5.736;2023-07-13T12:43:03;99371.09;;;32.85;28.90
66196;BME280;53000;45.182;5.736;2023-07-13T12:45:32;99375.25;;;32.88;28.94
66196;BME280;53000;45.182;5.736;2023-07-13T12:48:18;99360.28;;;32.92;28.90
66196;BME280;53000;45.182;5.736;2023-07-13T12:50:47;99359.59;;;32.87;27.66
66196;BME280;53000;45.182;5.736;2023-07-13T12:53:15;99363.22;;;32.73;27.80
66196;BME280;53000;45.182;5.736;2023-07-13T12:55:43;99361.50;;;32.64;28.48
66196;BME280;53000;45.182;5.736;2023-07-13T12:58:17;99345.28;;;32.60;28.08
66196;BME280;53000;45.182;5.736;2023-07-13T13:00:48;99343.34;;;32.61;28.17
66196;BME280;53000;45.182;5.736;2023-07-13T13:03:37;99365.66;;;32.66;28.55
66196;BME280;53000;45.182;5.736;2023-07-13T13:06:21;99350.38;;;32.72;28.43
66196;BME280;53000;45.182;5.736;2023-07-13T13:08:54;99343.31;;;32.75;27.71
66196;BME280;53000;45.182;5.736;2023-07-13T13:11:21;99357.00;;;32.76;28.41
66196;BME280;53000;45.182;5.736;2023-07-13T13:13:48;99349.63;;;32.80;28.53
66196;BME280;53000;45.182;5.736;2023-07-13T13:18:47;99354.50;;;32.89;26.83
66196;BME280;53000;45.182;5.736;2023-07-13T13:21:13;99339.84;;;32.92;26.69
66196;BME280;53000;45.182;5.736;2023-07-13T13:23:38;99347.72;;;32.90;26.88
66196;BME280;53000;45.182;5.736;2023-07-13T13:26:09;99348.44;;;32.95;27.54
66196;BME280;53000;45.182;5.736;2023-07-13T13:28:35;99342.00;;;32.95;26.35
66196;BME280;53000;45.182;5.736;2023-07-13T13:31:00;99348.19;;;33.06;27.15